createdAt,value
2023-03-26T00:02:14.895Z,7.47
2023-03-26T00:04:41.289Z,7.00
2023-03-26T00:07:07.672Z,8.38
2023-03-26T00:09:34.121Z,9.05
2023-03-26T00:12:00.454Z,8.55
2023-03-26T00:14:26.822Z,10.13
2023-03-26T00:16:53.294Z,11.10
2023-03-26T00:19:19.702Z,7.85
2023-03-26T00:21:46.049Z,7.22
2023-03-26T00:24:13.780Z,6.93
2023-03-26T00:26:40.693Z,7.10
2023-03-26T00:29:07.921Z,5.95
2023-03-26T00:31:35.175Z,9.95
2023-03-26T00:34:01.508Z,4.70
2023-03-26T00:36:27.986Z,6.68
2023-03-26T00:38:54.889Z,7.70
2023-03-26T00:41:26.364Z,8.35
2023-03-26T00:44:00.616Z,10.75
2023-03-26T00:46:29.924Z,10.05
2023-03-26T00:48:56.797Z,8.30
2023-03-26T00:51:23.242Z,11.15
2023-03-26T00:53:50.672Z,11.75
2023-03-26T00:56:17.778Z,11.40
2023-03-26T00:58:45.066Z,9.38
2023-03-26T01:01:14.666Z,9.48
2023-03-26T01:03:53.085Z,10.30
2023-03-26T01:06:34.350Z,9.35
2023-03-26T01:09:14.689Z,6.03
2023-03-26T01:11:43.591Z,12.15
2023-03-26T01:14:20.293Z,9.00
2023-03-26T01:16:53.519Z,9.45
2023-03-26T01:19:46.861Z,8.23
2023-03-26T01:22:17.874Z,8.98
2023-03-26T01:24:45.575Z,10.80
2023-03-26T01:27:27.799Z,11.00
2023-03-26T01:29:59.877Z,7.20
2023-03-26T01:32:37.409Z,9.90
2023-03-26T01:35:12.887Z,13.70
2023-03-26T01:37:46.865Z,10.15
2023-03-26T01:40:34.079Z,9.38
2023-03-26T01:43:10.032Z,9.80
2023-03-26T01:45:39.729Z,11.25
2023-03-26T01:48:07.013Z,8.63
2023-03-26T01:50:33.407Z,8.50
2023-03-26T01:53:00.490Z,9.45
2023-03-26T01:55:42.074Z,10.15
2023-03-26T01:58:21.257Z,8.93
2023-03-26T02:01:05.427Z,10.63
2023-03-26T02:03:44.325Z,12.07
2023-03-26T02:06:34.271Z,10.40
2023-03-26T02:09:08.937Z,11.30
2023-03-26T02:11:38.118Z,7.35
2023-03-26T02:14:07.315Z,12.18
2023-03-26T02:16:33.907Z,9.32
2023-03-26T02:19:00.398Z,9.27
2023-03-26T02:21:27.951Z,8.93
2023-03-26T02:23:57.421Z,13.27
2023-03-26T02:26:24.301Z,10.82
2023-03-26T02:28:50.695Z,10.80
2023-03-26T02:31:17.142Z,15.02
2023-03-26T02:33:43.547Z,12.00
2023-03-26T02:36:10.972Z,8.82
2023-03-26T02:38:37.368Z,12.02
2023-03-26T02:41:04.754Z,10.88
2023-03-26T02:43:31.305Z,12.52
2023-03-26T02:45:58.156Z,6.93
2023-03-26T02:48:24.811Z,10.38
2023-03-26T02:50:51.613Z,9.85
2023-03-26T02:53:18.001Z,12.30
2023-03-26T02:55:44.625Z,8.60
2023-03-26T02:58:11.048Z,16.15
2023-03-26T03:00:38.104Z,20.77
2023-03-26T03:03:04.558Z,13.65
2023-03-26T03:05:32.698Z,11.48
2023-03-26T03:07:59.216Z,17.20
2023-03-26T03:10:26.468Z,15.00
2023-03-26T03:12:53.020Z,16.55
2023-03-26T03:15:19.888Z,16.25
2023-03-26T03:17:47.164Z,11.60
2023-03-26T03:20:13.694Z,18.08
2023-03-26T03:22:40.187Z,14.07
2023-03-26T03:25:07.097Z,12.88
2023-03-26T03:27:33.459Z,16.85
2023-03-26T03:29:59.984Z,14.63
2023-03-26T03:32:26.567Z,15.13
2023-03-26T03:34:52.958Z,13.13
2023-03-26T03:37:20.077Z,12.65
2023-03-26T03:39:46.392Z,17.08
2023-03-26T03:42:12.792Z,11.52
2023-03-26T03:44:39.143Z,12.65
2023-03-26T03:47:05.664Z,11.35
2023-03-26T03:49:32.151Z,15.55
2023-03-26T03:51:58.465Z,11.38
2023-03-26T03:54:24.753Z,13.63
2023-03-26T03:56:51.191Z,10.90
2023-03-26T03:59:17.581Z,17.48
2023-03-26T04:01:43.975Z,16.02
2023-03-26T04:04:10.570Z,13.77
2023-03-26T04:06:36.989Z,13.48
2023-03-26T04:09:03.483Z,19.52
2023-03-26T04:11:29.934Z,12.35
2023-03-26T04:13:56.329Z,14.43
2023-03-26T04:16:22.723Z,11.95
2023-03-26T04:18:49.134Z,14.95
2023-03-26T04:21:15.513Z,13.30
2023-03-26T04:23:41.890Z,13.82
2023-03-26T04:26:15.438Z,15.13
2023-03-26T04:28:47.954Z,18.00
2023-03-26T04:31:18.439Z,14.45
2023-03-26T04:33:47.009Z,19.42
2023-03-26T04:36:15.448Z,15.63
2023-03-26T04:38:46.590Z,11.48
2023-03-26T04:41:14.875Z,16.27
2023-03-26T04:43:42.218Z,15.70
2023-03-26T04:46:09.663Z,17.23
2023-03-26T04:48:36.914Z,15.95
2023-03-26T04:51:03.482Z,21.25
2023-03-26T04:53:30.033Z,26.27
2023-03-26T04:56:05.916Z,16.38
2023-03-26T04:58:32.351Z,17.42
2023-03-26T05:01:00.350Z,17.67
2023-03-26T05:03:36.559Z,18.13
2023-03-26T05:06:02.960Z,24.42
2023-03-26T05:08:29.304Z,19.63
2023-03-26T05:10:56.677Z,16.27
2023-03-26T05:13:23.826Z,23.55
2023-03-26T05:15:50.516Z,19.67
2023-03-26T05:18:17.939Z,16.95
2023-03-26T05:20:45.400Z,22.13
2023-03-26T05:23:11.814Z,22.15
2023-03-26T05:25:39.268Z,22.00
2023-03-26T05:28:05.635Z,19.77
2023-03-26T05:30:32.122Z,21.05
2023-03-26T05:32:58.576Z,26.98
2023-03-26T05:35:24.980Z,20.45
2023-03-26T05:37:51.359Z,18.95
2023-03-26T05:40:17.911Z,16.10
2023-03-26T05:42:44.815Z,14.98
2023-03-26T05:45:13.538Z,24.67
2023-03-26T05:47:39.971Z,17.23
2023-03-26T05:50:08.314Z,15.50
2023-03-26T05:52:34.760Z,22.00
2023-03-26T05:55:01.475Z,15.10
2023-03-26T05:57:31.439Z,19.77
2023-03-26T05:59:57.908Z,15.68
2023-03-26T06:02:24.385Z,14.32
2023-03-26T06:04:51.012Z,18.00
2023-03-26T06:07:18.312Z,16.65
2023-03-26T06:09:46.854Z,14.13
2023-03-26T06:12:13.796Z,14.63
2023-03-26T06:14:40.455Z,18.27
2023-03-26T06:17:06.761Z,14.13
2023-03-26T06:19:33.169Z,21.20
2023-03-26T06:21:59.645Z,26.20
2023-03-26T06:24:26.188Z,18.38
2023-03-26T06:26:52.672Z,13.43
2023-03-26T06:29:19.244Z,21.92
2023-03-26T06:31:45.671Z,18.58
2023-03-26T06:34:12.145Z,13.15
2023-03-26T06:36:38.637Z,20.55
2023-03-26T06:39:07.629Z,29.90
2023-03-26T06:41:36.013Z,18.83
2023-03-26T06:44:02.367Z,26.55
2023-03-26T06:46:30.259Z,23.63
2023-03-26T06:48:56.672Z,30.10
2023-03-26T06:51:23.046Z,25.70
2023-03-26T06:53:49.365Z,30.13
2023-03-26T06:56:15.711Z,25.25
2023-03-26T06:58:42.184Z,21.05
2023-03-26T07:01:08.629Z,32.80
2023-03-26T07:03:35.238Z,38.15
2023-03-26T07:06:01.838Z,20.27
2023-03-26T07:08:33.931Z,18.98
2023-03-26T07:11:00.511Z,32.25
2023-03-26T07:13:26.954Z,23.73
2023-03-26T07:15:53.259Z,26.83
2023-03-26T07:18:19.666Z,23.58
2023-03-26T07:20:46.782Z,33.10
2023-03-26T07:23:13.623Z,24.55
2023-03-26T07:25:40.224Z,28.70
2023-03-26T07:28:32.321Z,23.90
2023-03-26T07:31:16.814Z,22.48
2023-03-26T07:34:21.247Z,29.48
2023-03-26T07:37:12.502Z,19.15
2023-03-26T07:39:54.975Z,22.48
2023-03-26T07:42:50.036Z,24.40
2023-03-26T07:45:42.600Z,21.40
2023-03-26T07:48:24.252Z,20.58
2023-03-26T07:50:51.185Z,16.88
2023-03-26T07:53:17.858Z,21.90
2023-03-26T07:55:53.001Z,27.90
2023-03-26T07:58:30.218Z,20.58
2023-03-26T08:01:08.311Z,17.40
2023-03-26T08:03:43.693Z,19.75
2023-03-26T08:06:24.067Z,14.07
2023-03-26T08:09:18.032Z,14.98
2023-03-26T08:11:47.231Z,13.75
2023-03-26T08:14:22.701Z,16.30
2023-03-26T08:17:07.791Z,18.77
2023-03-26T08:19:43.917Z,14.20
2023-03-26T08:22:19.203Z,13.23
2023-03-26T08:25:06.589Z,12.25
2023-03-26T08:27:39.346Z,13.93
2023-03-26T08:30:14.806Z,9.68
2023-03-26T08:32:41.471Z,11.10
2023-03-26T08:35:12.263Z,13.45
2023-03-26T08:37:38.587Z,13.48
2023-03-26T08:40:05.298Z,10.27
2023-03-26T08:42:44.851Z,9.52
2023-03-26T08:45:20.067Z,9.55
2023-03-26T08:48:24.120Z,12.25
2023-03-26T08:51:09.292Z,9.13
2023-03-26T08:53:54.347Z,12.23
2023-03-26T08:56:30.763Z,12.40
2023-03-26T08:59:45.235Z,9.07
2023-03-26T09:02:14.638Z,6.40
2023-03-26T09:05:07.784Z,8.50
2023-03-26T09:07:52.596Z,8.75
2023-03-26T09:10:51.071Z,10.35
2023-03-26T09:14:01.907Z,10.52
2023-03-26T09:16:53.336Z,12.60
2023-03-26T09:19:49.204Z,9.00
2023-03-26T09:22:43.582Z,8.65
2023-03-26T09:25:48.066Z,6.68
2023-03-26T09:28:32.533Z,11.25
2023-03-26T09:31:16.877Z,10.40
2023-03-26T09:33:57.148Z,10.90
2023-03-26T09:36:42.248Z,9.98
2023-03-26T09:39:08.524Z,11.82
2023-03-26T09:42:00.604Z,8.18
2023-03-26T09:44:38.740Z,15.38
2023-03-26T09:47:33.082Z,7.93
2023-03-26T09:50:23.850Z,10.60
2023-03-26T09:53:12.552Z,10.32
2023-03-26T09:56:14.890Z,10.70
2023-03-26T09:58:56.497Z,14.13
2023-03-26T10:01:50.818Z,10.18
2023-03-26T10:04:42.885Z,8.00
2023-03-26T10:07:30.516Z,12.50
2023-03-26T10:10:24.650Z,7.90
2023-03-26T10:13:08.070Z,16.70
2023-03-26T10:16:08.087Z,16.42
2023-03-26T10:19:14.183Z,9.57
2023-03-26T10:21:48.640Z,7.50
2023-03-26T10:24:44.785Z,9.10
2023-03-26T10:27:19.945Z,15.85
2023-03-26T10:30:17.663Z,9.48
2023-03-26T10:32:53.292Z,11.80
2023-03-26T10:35:43.684Z,8.10
2023-03-26T10:38:31.172Z,8.25
2023-03-26T10:41:21.318Z,11.40
2023-03-26T10:44:08.472Z,12.63
2023-03-26T10:47:00.089Z,9.73
2023-03-26T10:50:12.072Z,11.10
2023-03-26T10:52:46.596Z,22.17
2023-03-26T10:55:25.836Z,10.05
2023-03-26T10:58:16.838Z,13.05
2023-03-26T11:00:52.857Z,9.73
2023-03-26T11:03:49.618Z,10.55
2023-03-26T11:06:36.180Z,10.88
2023-03-26T11:09:20.366Z,9.25
2023-03-26T11:12:26.634Z,10.63
2023-03-26T11:15:15.878Z,13.88
2023-03-26T11:17:58.872Z,10.13
2023-03-26T11:20:41.541Z,8.25
2023-03-26T11:23:26.174Z,10.82
2023-03-26T11:25:59.774Z,9.77
2023-03-26T11:28:39.286Z,13.77
2023-03-26T11:31:27.588Z,10.65
2023-03-26T11:34:00.419Z,10.32
2023-03-26T11:36:31.852Z,8.57
2023-03-26T11:39:02.463Z,9.93
2023-03-26T11:41:30.230Z,8.85
2023-03-26T11:43:59.634Z,10.40
2023-03-26T11:46:26.699Z,12.18
2023-03-26T11:48:57.814Z,8.02
2023-03-26T11:51:31.724Z,10.77
2023-03-26T11:53:58.822Z,5.50
2023-03-26T11:56:32.185Z,5.45
2023-03-26T11:59:21.659Z,10.75
2023-03-26T12:01:57.008Z,14.30
2023-03-26T12:04:44.363Z,12.68
2023-03-26T12:07:18.430Z,11.40
2023-03-26T12:09:57.088Z,11.70
2023-03-26T12:12:46.639Z,15.80
2023-03-26T12:15:18.182Z,9.25
2023-03-26T12:17:46.536Z,9.52
2023-03-26T12:20:25.227Z,7.13
2023-03-26T12:22:56.052Z,6.03
2023-03-26T12:25:24.684Z,8.18
2023-03-26T12:28:02.609Z,13.48
2023-03-26T12:30:31.959Z,10.20
2023-03-26T12:33:01.331Z,5.30
2023-03-26T12:35:30.031Z,14.43
2023-03-26T12:38:15.314Z,8.35
2023-03-26T12:40:43.213Z,8.68
2023-03-26T12:44:47.107Z,6.95
2023-03-26T12:47:54.619Z,6.55
2023-03-26T12:49:11.030Z,12.00
2023-03-26T12:51:52.730Z,9.55
2023-03-26T12:54:49.131Z,9.80
2023-03-26T12:57:19.127Z,12.13
2023-03-26T12:59:55.565Z,15.85
2023-03-26T13:02:34.341Z,11.70
2023-03-26T13:05:25.318Z,16.45
2023-03-26T13:07:58.165Z,8.95
2023-03-26T13:11:05.718Z,7.30
2023-03-26T13:14:11.485Z,7.40
2023-03-26T13:16:46.606Z,8.95
2023-03-26T13:19:25.275Z,14.73
2023-03-26T13:22:19.952Z,9.07
2023-03-26T13:25:25.216Z,13.05
2023-03-26T13:27:59.688Z,9.32
2023-03-26T13:30:48.476Z,6.03
2023-03-26T13:33:29.520Z,7.38
2023-03-26T13:36:14.314Z,6.97
2023-03-26T13:38:58.971Z,8.07
2023-03-26T13:41:29.737Z,8.93
2023-03-26T13:44:02.229Z,7.45
2023-03-26T13:46:28.563Z,7.97
2023-03-26T13:49:02.808Z,11.10
2023-03-26T13:51:32.005Z,7.93
2023-03-26T13:54:07.610Z,12.57
2023-03-26T13:56:45.618Z,6.10
2023-03-26T13:59:26.537Z,8.82
2023-03-26T14:01:57.030Z,9.27
2023-03-26T14:04:32.285Z,5.70
2023-03-26T14:07:20.705Z,8.85
2023-03-26T14:10:10.393Z,6.47
2023-03-26T14:12:59.557Z,6.55
2023-03-26T14:15:56.265Z,9.18
2023-03-26T14:18:27.093Z,5.45
2023-03-26T14:21:35.214Z,6.53
2023-03-26T14:24:25.832Z,4.50
2023-03-26T14:27:01.340Z,10.32
2023-03-26T14:29:58.531Z,9.15
2023-03-26T14:32:35.962Z,6.95
2023-03-26T14:35:32.578Z,4.60
2023-03-26T14:38:29.752Z,10.40
2023-03-26T14:40:58.593Z,11.02
2023-03-26T14:43:46.527Z,9.70
2023-03-26T14:46:39.261Z,8.73
2023-03-26T14:49:36.666Z,7.50
2023-03-26T14:52:20.251Z,5.80
2023-03-26T14:54:51.617Z,8.75
2023-03-26T14:57:23.803Z,4.07
2023-03-26T15:00:29.235Z,5.40
2023-03-26T15:02:58.369Z,4.25
2023-03-26T15:05:47.108Z,8.70
2023-03-26T15:09:02.621Z,6.85
2023-03-26T15:12:12.310Z,6.68
2023-03-26T15:15:03.217Z,6.40
2023-03-26T15:17:35.182Z,9.38
2023-03-26T15:20:23.062Z,8.35
2023-03-26T15:23:13.956Z,6.85
2023-03-26T15:26:18.086Z,13.18
2023-03-26T15:29:06.041Z,6.53
2023-03-26T15:31:55.549Z,5.07
2023-03-26T15:34:51.575Z,8.77
2023-03-26T15:37:52.755Z,10.00
2023-03-26T15:40:28.546Z,7.07
2023-03-26T15:42:57.974Z,5.80
2023-03-26T15:45:36.638Z,5.57
2023-03-26T15:48:12.250Z,6.70
2023-03-26T15:51:01.506Z,7.47
2023-03-26T15:54:06.939Z,10.98
2023-03-26T15:56:51.784Z,6.88
2023-03-26T15:59:36.571Z,4.68
2023-03-26T16:02:37.314Z,11.43
2023-03-26T16:05:22.651Z,8.95
2023-03-26T16:08:06.803Z,16.02
2023-03-26T16:10:35.957Z,8.00
2023-03-26T16:13:34.064Z,8.82
2023-03-26T16:16:03.568Z,6.63
2023-03-26T16:18:35.334Z,5.65
2023-03-26T16:21:32.024Z,5.47
2023-03-26T16:24:01.785Z,5.50
2023-03-26T16:26:57.994Z,8.02
2023-03-26T16:29:26.178Z,7.43
2023-03-26T16:32:11.193Z,6.93
2023-03-26T16:34:49.582Z,5.45
2023-03-26T16:37:37.358Z,5.22
2023-03-26T16:40:19.088Z,6.00
2023-03-26T16:43:07.467Z,9.05
2023-03-26T16:46:06.152Z,10.40
2023-03-26T16:48:37.671Z,6.35
2023-03-26T16:51:08.826Z,13.32
2023-03-26T16:53:45.080Z,5.55
2023-03-26T16:56:16.537Z,5.05
2023-03-26T16:58:55.058Z,5.55
2023-03-26T17:01:43.118Z,7.80
2023-03-26T17:04:27.449Z,6.13
2023-03-26T17:07:06.045Z,8.98
2023-03-26T17:09:54.301Z,5.50
2023-03-26T17:12:48.421Z,4.80
2023-03-26T17:15:37.781Z,4.63
2023-03-26T17:18:35.533Z,4.72
2023-03-26T17:21:12.912Z,5.20
2023-03-26T17:23:55.006Z,5.70
2023-03-26T17:26:27.104Z,6.82
2023-03-26T17:29:32.528Z,7.40
2023-03-26T17:32:13.625Z,8.02
2023-03-26T17:34:40.131Z,8.23
2023-03-26T17:37:18.647Z,5.82
2023-03-26T17:39:45.334Z,9.48
2023-03-26T17:42:29.053Z,7.03
2023-03-26T17:44:57.496Z,6.07
2023-03-26T17:47:41.105Z,10.55
2023-03-26T17:50:15.064Z,8.10
2023-03-26T17:52:51.457Z,4.68
2023-03-26T17:55:25.788Z,9.40
2023-03-26T17:57:57.447Z,6.53
2023-03-26T18:00:29.523Z,3.08
2023-03-26T18:02:58.957Z,3.65
2023-03-26T18:05:29.375Z,6.15
2023-03-26T18:08:17.543Z,5.53
2023-03-26T18:11:06.061Z,6.40
2023-03-26T18:14:00.476Z,7.00
2023-03-26T18:16:45.257Z,6.68
2023-03-26T18:19:15.045Z,5.35
2023-03-26T18:21:41.339Z,9.57
2023-03-26T18:24:13.363Z,7.13
2023-03-26T18:26:42.310Z,5.88
2023-03-26T18:29:29.782Z,4.72
2023-03-26T18:32:01.402Z,6.53
2023-03-26T18:34:33.039Z,13.18
2023-03-26T18:37:14.025Z,5.25
2023-03-26T18:40:00.547Z,5.68
2023-03-26T18:42:29.685Z,4.07
2023-03-26T18:44:59.647Z,7.55
2023-03-26T18:47:29.746Z,6.50
2023-03-26T18:49:57.991Z,7.63
2023-03-26T18:52:28.212Z,5.15
2023-03-26T18:54:56.599Z,3.67
2023-03-26T18:57:28.757Z,3.58
2023-03-26T19:00:05.338Z,6.93
2023-03-26T19:02:31.824Z,3.97
2023-03-26T19:05:01.314Z,3.92
2023-03-26T19:07:27.775Z,6.32
2023-03-26T19:09:54.576Z,5.32
2023-03-26T19:12:27.805Z,6.43
2023-03-26T19:15:07.201Z,3.33
2023-03-26T19:17:39.928Z,4.72
2023-03-26T19:20:13.219Z,6.47
2023-03-26T19:22:39.543Z,6.13
2023-03-26T19:25:06.973Z,5.03
2023-03-26T19:27:33.458Z,6.80
2023-03-26T19:29:59.804Z,5.07
2023-03-26T19:32:31.178Z,7.13
2023-03-26T19:34:59.636Z,5.82
2023-03-26T19:37:29.102Z,6.75
2023-03-26T19:40:02.789Z,6.03
2023-03-26T19:42:43.411Z,4.38
2023-03-26T19:45:21.761Z,5.10
2023-03-26T19:47:57.309Z,6.88
2023-03-26T19:50:35.973Z,6.55
2023-03-26T19:53:16.090Z,7.32
2023-03-26T19:55:57.267Z,6.85
2023-03-26T19:58:24.839Z,7.28
2023-03-26T20:00:51.504Z,2.03
2023-03-26T20:03:26.567Z,4.13
2023-03-26T20:05:52.972Z,4.30
2023-03-26T20:08:19.946Z,4.43
2023-03-26T20:10:46.312Z,6.10
2023-03-26T20:13:16.877Z,4.18
2023-03-26T20:15:50.490Z,4.65
2023-03-26T20:18:32.745Z,3.00
2023-03-26T20:20:59.046Z,5.10
2023-03-26T20:23:25.504Z,4.10
2023-03-26T20:25:53.136Z,5.22
2023-03-26T20:28:20.061Z,3.25
2023-03-26T20:30:50.313Z,6.25
2023-03-26T20:33:25.679Z,5.40
2023-03-26T20:35:53.600Z,11.35
2023-03-26T20:38:24.066Z,3.60
2023-03-26T20:40:56.212Z,5.15
2023-03-26T20:43:22.790Z,4.93
2023-03-26T20:45:49.440Z,7.10
2023-03-26T20:48:15.817Z,6.50
2023-03-26T20:50:50.451Z,4.05
2023-03-26T20:53:17.564Z,4.30
2023-03-26T20:55:44.524Z,6.22
2023-03-26T20:58:13.609Z,4.22
2023-03-26T21:00:40.124Z,8.68
2023-03-26T21:03:06.489Z,10.27
2023-03-26T21:05:34.554Z,4.28
2023-03-26T21:08:01.170Z,3.72
2023-03-26T21:10:28.263Z,3.17
2023-03-26T21:12:57.655Z,3.45
2023-03-26T21:15:25.404Z,2.17
2023-03-26T21:17:52.382Z,3.97
2023-03-26T21:20:19.861Z,5.15
2023-03-26T21:23:10.016Z,5.93
2023-03-26T21:25:48.169Z,7.22
2023-03-26T21:28:41.823Z,4.22
2023-03-26T21:31:15.390Z,2.83
2023-03-26T21:33:41.831Z,4.93
2023-03-26T21:36:08.713Z,5.50
2023-03-26T21:38:35.384Z,5.63
2023-03-26T21:41:02.134Z,6.00
2023-03-26T21:43:29.077Z,3.03
2023-03-26T21:45:56.071Z,5.63
2023-03-26T21:48:22.747Z,2.90
2023-03-26T21:50:49.794Z,6.80
2023-03-26T21:53:16.605Z,3.00
2023-03-26T21:55:52.085Z,7.82
2023-03-26T21:58:54.411Z,4.70
2023-03-26T22:01:46.846Z,3.33
2023-03-26T22:04:34.782Z,2.30
2023-03-26T22:07:07.481Z,6.28
2023-03-26T22:09:36.505Z,4.53
2023-03-26T22:12:04.289Z,4.57
2023-03-26T22:14:30.693Z,4.63
2023-03-26T22:16:57.070Z,3.15
2023-03-26T22:19:23.381Z,3.63
2023-03-26T22:21:49.752Z,5.47
2023-03-26T22:24:16.098Z,5.82
2023-03-26T22:26:42.485Z,5.07
2023-03-26T22:29:08.879Z,4.60
2023-03-26T22:31:38.271Z,2.45
2023-03-26T22:34:37.667Z,3.22
2023-03-26T22:37:12.580Z,3.63
2023-03-26T22:39:43.513Z,6.45
2023-03-26T22:42:21.530Z,7.72
2023-03-26T22:44:53.782Z,3.13
2023-03-26T22:47:26.519Z,5.50
2023-03-26T22:50:07.409Z,4.85
2023-03-26T22:52:40.041Z,4.43
2023-03-26T22:55:29.246Z,6.15
2023-03-26T22:58:03.578Z,6.10
2023-03-26T23:00:31.595Z,5.32
2023-03-26T23:02:58.045Z,3.40
2023-03-26T23:05:24.505Z,2.47
2023-03-26T23:07:50.994Z,5.65
2023-03-26T23:10:17.771Z,4.85
2023-03-26T23:12:44.483Z,4.15
2023-03-26T23:15:11.329Z,2.05
2023-03-26T23:17:38.223Z,2.75
2023-03-26T23:20:07.378Z,5.13
2023-03-26T23:22:33.815Z,5.10
2023-03-26T23:25:00.199Z,7.60
2023-03-26T23:27:26.576Z,7.72
2023-03-26T23:29:52.965Z,5.20
2023-03-26T23:32:23.783Z,3.85
2023-03-26T23:34:51.757Z,4.45
2023-03-26T23:37:18.735Z,2.80
2023-03-26T23:39:45.030Z,9.75
2023-03-26T23:42:11.347Z,7.10
2023-03-26T23:44:37.696Z,6.35
2023-03-26T23:47:04.044Z,1.52
2023-03-26T23:49:30.415Z,4.13
2023-03-26T23:51:56.794Z,5.07
2023-03-26T23:54:23.117Z,2.63
2023-03-26T23:56:49.494Z,5.15
2023-03-26T23:59:15.906Z,5.15
